createdAt,value
2018-06-20T00:00:45.639Z,16.60
2018-06-20T00:03:14.149Z,16.50
2018-06-20T00:05:42.650Z,16.60
2018-06-20T00:08:11.146Z,16.70
2018-06-20T00:10:39.665Z,16.60
2018-06-20T00:13:08.185Z,16.70
2018-06-20T00:15:36.720Z,16.50
2018-06-20T00:18:05.760Z,16.40
2018-06-20T00:20:35.722Z,16.60
2018-06-20T00:23:04.400Z,16.60
2018-06-20T00:25:32.888Z,16.60
2018-06-20T00:28:01.566Z,16.50
2018-06-20T00:30:30.100Z,16.60
2018-06-20T00:32:58.594Z,16.70
2018-06-20T00:37:55.384Z,16.70
2018-06-20T00:40:23.860Z,16.60
2018-06-20T00:42:52.474Z,16.50
2018-06-20T00:45:20.951Z,16.40
2018-06-20T00:47:49.450Z,16.50
2018-06-20T00:50:18.204Z,16.70
2018-06-20T00:52:47.184Z,16.70
2018-06-20T00:55:19.945Z,16.60
2018-06-20T00:57:48.416Z,16.70
2018-06-20T01:00:17.005Z,16.60
2018-06-20T01:02:45.488Z,16.90
2018-06-20T01:05:14.014Z,16.70
2018-06-20T01:07:42.686Z,16.40
2018-06-20T01:10:11.328Z,16.30
2018-06-20T01:12:39.829Z,16.30
2018-06-20T01:15:08.396Z,16.40
2018-06-20T01:17:37.098Z,16.40
2018-06-20T01:20:05.832Z,16.30
2018-06-20T01:22:34.302Z,16.30
2018-06-20T01:25:02.826Z,16.30
2018-06-20T01:27:31.311Z,16.40
2018-06-20T01:29:59.819Z,16.30
2018-06-20T01:32:28.323Z,16.20
2018-06-20T01:34:56.817Z,16.10
2018-06-20T01:37:25.521Z,16.00
2018-06-20T01:39:54.028Z,16.00
2018-06-20T01:42:22.708Z,16.00
2018-06-20T01:44:51.395Z,16.00
2018-06-20T01:47:20.055Z,15.90
2018-06-20T01:52:16.848Z,16.00
2018-06-20T01:54:45.358Z,16.00
2018-06-20T01:57:13.877Z,16.10
2018-06-20T01:59:42.398Z,16.00
2018-06-20T02:02:10.938Z,15.90
2018-06-20T02:04:39.429Z,16.00
2018-06-20T02:07:08.198Z,16.10
2018-06-20T02:09:36.966Z,16.00
2018-06-20T02:12:05.444Z,16.10
2018-06-20T02:14:33.954Z,16.20
2018-06-20T02:17:02.450Z,16.40
2018-06-20T02:19:30.937Z,16.40
2018-06-20T02:21:59.423Z,16.30
2018-06-20T02:24:27.915Z,16.30
2018-06-20T02:26:56.419Z,16.40
2018-06-20T02:29:25.013Z,16.30
2018-06-20T02:31:53.659Z,16.70
2018-06-20T02:34:22.179Z,16.70
2018-06-20T02:36:50.707Z,16.70
2018-06-20T02:39:19.240Z,16.60
2018-06-20T02:41:47.741Z,16.40
2018-06-20T02:44:16.231Z,16.30
2018-06-20T02:46:44.729Z,16.40
2018-06-20T02:49:13.249Z,16.50
2018-06-20T02:51:42.561Z,16.40
2018-06-20T02:54:11.734Z,16.70
2018-06-20T02:56:40.267Z,16.90
2018-06-20T02:59:08.734Z,16.70
2018-06-20T03:01:37.238Z,16.80
2018-06-20T03:04:05.768Z,16.70
2018-06-20T03:06:34.281Z,16.60
2018-06-20T03:09:06.975Z,16.50
2018-06-20T03:11:35.465Z,16.60
2018-06-20T03:14:04.007Z,16.50
2018-06-20T03:16:32.485Z,16.70
2018-06-20T03:19:00.983Z,16.80
2018-06-20T03:21:29.558Z,16.60
2018-06-20T03:23:58.106Z,16.70
2018-06-20T03:26:26.662Z,16.60
2018-06-20T03:28:55.322Z,16.40
2018-06-20T03:31:23.894Z,16.40
2018-06-20T03:33:52.404Z,16.40
2018-06-20T03:36:20.940Z,16.40
2018-06-20T03:38:49.845Z,16.50
2018-06-20T03:41:18.329Z,16.80
2018-06-20T03:43:46.999Z,16.80
2018-06-20T03:46:16.198Z,17.00
2018-06-20T03:48:44.699Z,16.90
2018-06-20T03:51:13.256Z,16.90
2018-06-20T03:53:41.953Z,16.80
2018-06-20T03:56:10.440Z,16.70
2018-06-20T03:58:39.085Z,16.80
2018-06-20T04:03:36.702Z,16.70
2018-06-20T04:06:05.476Z,16.60
2018-06-20T04:08:34.062Z,16.70
2018-06-20T04:11:02.540Z,16.80
2018-06-20T04:13:31.013Z,16.80
2018-06-20T04:15:59.834Z,16.70
2018-06-20T04:18:44.407Z,16.70
2018-06-20T04:21:14.026Z,16.60
2018-06-20T04:23:42.530Z,16.90
2018-06-20T04:26:11.842Z,17.00
2018-06-20T04:28:40.451Z,17.20
2018-06-20T04:31:09.916Z,17.10
2018-06-20T04:33:39.023Z,17.00
2018-06-20T04:36:07.534Z,17.00
2018-06-20T04:38:36.043Z,17.00
2018-06-20T04:41:04.747Z,16.90
2018-06-20T04:43:33.319Z,16.80
2018-06-20T04:46:01.813Z,16.90
2018-06-20T04:48:30.373Z,16.90
2018-06-20T04:50:58.899Z,16.90
2018-06-20T04:53:28.017Z,17.00
2018-06-20T04:55:56.685Z,16.80
2018-06-20T04:58:25.508Z,16.60
2018-06-20T05:00:54.094Z,16.70
2018-06-20T05:03:22.591Z,16.70
2018-06-20T05:05:51.267Z,16.80
2018-06-20T05:08:19.812Z,16.80
2018-06-20T05:10:48.347Z,16.70
2018-06-20T05:13:16.982Z,16.80
2018-06-20T05:15:45.573Z,16.90
2018-06-20T05:20:42.311Z,16.70
2018-06-20T05:23:11.893Z,16.90
2018-06-20T05:25:40.894Z,16.60
2018-06-20T05:28:09.439Z,17.10
2018-06-20T05:30:37.941Z,17.00
2018-06-20T05:33:06.505Z,16.80
2018-06-20T05:35:35.407Z,16.80
2018-06-20T05:38:04.227Z,17.00
2018-06-20T05:40:32.824Z,16.90
2018-06-20T05:43:01.608Z,16.80
2018-06-20T05:45:30.260Z,17.00
2018-06-20T05:47:58.944Z,17.00
2018-06-20T05:50:27.487Z,17.00
2018-06-20T05:52:56.011Z,17.00
2018-06-20T05:55:24.581Z,17.20
2018-06-20T05:57:53.068Z,17.20
2018-06-20T06:00:21.616Z,17.00
2018-06-20T06:02:50.116Z,17.00
2018-06-20T06:05:19.041Z,17.10
2018-06-20T06:07:48.868Z,16.80
2018-06-20T06:10:19.049Z,16.70
2018-06-20T06:12:48.229Z,16.90
2018-06-20T06:15:16.881Z,16.90
2018-06-20T06:17:45.720Z,16.90
2018-06-20T06:20:14.243Z,16.80
2018-06-20T06:22:42.787Z,16.70
2018-06-20T06:25:11.470Z,16.80
2018-06-20T06:27:39.942Z,16.70
2018-06-20T06:30:08.543Z,16.70
2018-06-20T06:32:37.077Z,16.80
2018-06-20T06:35:05.805Z,16.70
2018-06-20T06:37:34.854Z,16.90
2018-06-20T06:40:03.400Z,16.80
2018-06-20T06:42:31.937Z,16.70
2018-06-20T06:45:00.512Z,17.00
2018-06-20T06:47:29.567Z,16.80
2018-06-20T06:49:58.207Z,16.80
2018-06-20T06:52:26.729Z,16.60
2018-06-20T06:54:55.239Z,16.70
2018-06-20T06:57:23.756Z,16.60
2018-06-20T06:59:52.238Z,16.50
2018-06-20T07:02:20.798Z,16.40
2018-06-20T07:04:49.383Z,16.60
2018-06-20T07:07:17.905Z,16.80
2018-06-20T07:09:46.440Z,16.80
2018-06-20T07:12:14.930Z,16.80
2018-06-20T07:14:43.573Z,16.70
2018-06-20T07:17:12.282Z,16.90
2018-06-20T07:19:40.988Z,16.80
2018-06-20T07:22:09.507Z,16.70
2018-06-20T07:24:38.084Z,16.70
2018-06-20T07:27:07.019Z,16.70
2018-06-20T07:29:35.571Z,16.60
2018-06-20T07:32:04.055Z,16.70
2018-06-20T07:34:32.618Z,16.70
2018-06-20T07:37:01.149Z,16.70
2018-06-20T07:39:29.664Z,16.70
2018-06-20T07:41:58.196Z,16.80
2018-06-20T07:44:26.654Z,16.80
2018-06-20T07:46:55.268Z,16.70
2018-06-20T07:49:23.952Z,16.80
2018-06-20T07:51:52.496Z,16.70
2018-06-20T07:54:21.228Z,16.50
2018-06-20T07:56:49.978Z,16.60
2018-06-20T08:02:03.647Z,16.90
2018-06-20T08:04:37.494Z,16.80
2018-06-20T08:09:44.784Z,16.80
2018-06-20T08:12:18.764Z,16.90
2018-06-20T08:14:52.591Z,17.10
2018-06-20T08:17:26.436Z,17.00
2018-06-20T08:19:57.890Z,16.90
2018-06-20T08:22:28.459Z,17.00
2018-06-20T08:25:03.278Z,17.10
2018-06-20T08:27:32.899Z,17.10
2018-06-20T08:30:03.695Z,17.10
2018-06-20T08:32:32.924Z,17.10
2018-06-20T08:35:02.002Z,17.20
2018-06-20T08:37:30.520Z,17.40
2018-06-20T08:39:59.397Z,17.30
2018-06-20T08:42:27.919Z,17.30
2018-06-20T08:44:57.065Z,17.30
2018-06-20T08:47:26.084Z,17.30
2018-06-20T08:49:55.056Z,17.30
2018-06-20T08:52:24.349Z,17.50
2018-06-20T08:54:53.024Z,17.60
2018-06-20T08:57:21.751Z,17.70
2018-06-20T08:59:50.326Z,17.80
2018-06-20T09:02:20.144Z,17.90
2018-06-20T09:04:53.980Z,18.00
2018-06-20T09:07:27.755Z,18.20
2018-06-20T09:10:01.706Z,18.20
2018-06-20T09:12:35.640Z,18.20
2018-06-20T09:15:09.510Z,18.40
2018-06-20T09:17:43.381Z,18.40
2018-06-20T09:20:11.926Z,18.30
2018-06-20T09:22:40.483Z,18.40
2018-06-20T09:25:09.219Z,18.50
2018-06-20T09:27:37.730Z,18.60
2018-06-20T09:30:06.361Z,18.60
2018-06-20T09:32:34.811Z,18.70
2018-06-20T09:35:03.556Z,18.60
2018-06-20T09:37:32.059Z,18.50
2018-06-20T09:40:00.761Z,18.40
2018-06-20T09:42:30.497Z,18.70
2018-06-20T09:44:59.152Z,18.60
2018-06-20T09:47:27.703Z,18.70
2018-06-20T09:50:00.446Z,19.00
2018-06-20T09:52:28.962Z,19.00
2018-06-20T09:54:57.648Z,19.10
2018-06-20T09:57:26.169Z,19.20
2018-06-20T10:00:00.103Z,19.20
2018-06-20T10:02:33.785Z,19.30
2018-06-20T10:05:08.292Z,19.60
2018-06-20T10:07:42.010Z,19.50
2018-06-20T10:10:16.089Z,19.40
2018-06-20T10:12:49.867Z,19.40
2018-06-20T10:15:18.401Z,19.50
2018-06-20T10:17:47.192Z,19.50
2018-06-20T10:20:20.932Z,19.40
2018-06-20T10:22:49.395Z,19.50
2018-06-20T10:25:21.709Z,19.60
2018-06-20T10:27:50.326Z,19.60
2018-06-20T10:30:19.044Z,19.50
2018-06-20T10:32:47.590Z,19.70
2018-06-20T10:35:16.149Z,19.80
2018-06-20T10:37:44.614Z,19.80
2018-06-20T10:42:41.597Z,19.70
2018-06-20T10:45:15.428Z,19.90
2018-06-20T10:47:45.553Z,20.10
2018-06-20T10:50:14.827Z,20.10
2018-06-20T10:52:43.331Z,20.10
2018-06-20T10:55:13.763Z,20.10
2018-06-20T10:59:55.081Z,20.10
2018-06-20T11:02:29.093Z,20.20
2018-06-20T11:05:02.959Z,20.30
2018-06-20T11:07:36.953Z,20.40
2018-06-20T11:10:10.703Z,20.40
2018-06-20T11:12:44.603Z,20.50
2018-06-20T11:15:13.484Z,20.50
2018-06-20T11:17:42.048Z,20.40
2018-06-20T11:20:15.830Z,20.30
2018-06-20T11:22:44.358Z,20.40
2018-06-20T11:25:13.834Z,20.70
2018-06-20T11:27:42.398Z,20.80
2018-06-20T11:30:10.936Z,20.80
2018-06-20T11:35:07.866Z,20.90
2018-06-20T11:37:36.424Z,20.80
2018-06-20T11:40:05.275Z,20.90
2018-06-20T11:42:33.782Z,20.90
2018-06-20T11:45:02.837Z,20.90
2018-06-20T11:47:36.722Z,20.70
2018-06-20T11:50:05.398Z,21.00
2018-06-20T11:53:06.516Z,21.00
2018-06-20T11:55:37.328Z,21.10
2018-06-20T11:58:12.148Z,21.20
2018-06-20T12:00:46.140Z,21.20
2018-06-20T12:03:20.314Z,21.30
2018-06-20T12:07:59.285Z,21.30
2018-06-20T12:10:33.088Z,21.40
2018-06-20T12:13:06.779Z,21.50
2018-06-20T12:15:40.700Z,21.50
2018-06-20T12:18:14.474Z,21.50
2018-06-20T12:20:48.325Z,21.50
2018-06-20T12:23:22.176Z,21.60
2018-06-20T12:25:55.924Z,21.60
2018-06-20T12:28:29.792Z,21.60
2018-06-20T12:31:03.789Z,21.50
2018-06-20T12:33:37.728Z,21.80
2018-06-20T12:36:12.080Z,21.60
2018-06-20T12:38:45.923Z,21.70
2018-06-20T12:41:19.754Z,21.90
2018-06-20T12:43:53.616Z,21.90
2018-06-20T12:46:33.517Z,21.90
2018-06-20T12:49:02.184Z,21.90
2018-06-20T12:51:30.663Z,21.90
2018-06-20T12:53:59.177Z,22.00
2018-06-20T12:58:55.890Z,21.90
2018-06-20T13:01:24.651Z,22.10
2018-06-20T13:03:53.203Z,22.20
2018-06-20T13:06:21.715Z,22.20
2018-06-20T13:08:50.249Z,22.30
2018-06-20T13:11:18.789Z,22.40
2018-06-20T13:13:47.533Z,22.50
2018-06-20T13:16:16.020Z,22.40
2018-06-20T13:18:55.287Z,22.40
2018-06-20T13:21:24.038Z,22.50
2018-06-20T13:23:52.794Z,22.60
2018-06-20T13:26:21.623Z,22.50
2018-06-20T13:28:50.096Z,22.40
2018-06-20T13:31:24.731Z,22.50
2018-06-20T13:33:58.455Z,22.60
2018-06-20T13:36:32.430Z,22.60
2018-06-20T13:39:06.201Z,22.70
2018-06-20T13:41:40.074Z,22.80
2018-06-20T13:44:10.090Z,22.90
2018-06-20T13:46:44.115Z,22.70
2018-06-20T13:49:12.611Z,22.70
2018-06-20T13:51:41.377Z,22.90
2018-06-20T13:54:10.369Z,22.80
2018-06-20T13:56:38.867Z,22.80
2018-06-20T13:59:07.452Z,22.70
2018-06-20T14:01:35.967Z,22.70
2018-06-20T14:04:04.740Z,22.70
2018-06-20T14:06:33.232Z,22.90
2018-06-20T14:09:01.767Z,23.00
2018-06-20T14:11:30.281Z,23.20
2018-06-20T14:13:58.888Z,23.10
2018-06-20T14:16:27.583Z,23.20
2018-06-20T14:18:56.563Z,23.30
2018-06-20T14:21:30.319Z,23.20
2018-06-20T14:23:58.826Z,23.30
2018-06-20T14:28:55.522Z,23.60
2018-06-20T14:31:29.423Z,23.40
2018-06-20T14:34:03.332Z,23.20
2018-06-20T14:36:37.079Z,23.60
2018-06-20T14:39:14.160Z,23.50
2018-06-20T14:41:48.367Z,23.40
2018-06-20T14:44:17.184Z,23.50
2018-06-20T14:46:45.926Z,23.50
2018-06-20T14:49:14.422Z,23.40
2018-06-20T14:51:43.162Z,23.60
2018-06-20T14:54:11.984Z,23.70
2018-06-20T14:56:41.024Z,23.70
2018-06-20T14:59:09.716Z,23.80
2018-06-20T15:01:38.313Z,23.80
2018-06-20T15:04:07.015Z,23.60
2018-06-20T15:06:36.222Z,23.60
2018-06-20T15:09:07.429Z,23.50
2018-06-20T15:11:36.253Z,23.60
2018-06-20T15:14:04.788Z,23.80
2018-06-20T15:16:38.643Z,23.70
2018-06-20T15:19:07.171Z,23.80
2018-06-20T15:21:35.767Z,23.90
2018-06-20T15:24:04.299Z,23.90
2018-06-20T15:26:38.056Z,23.90
2018-06-20T15:29:11.974Z,24.10
2018-06-20T15:31:46.129Z,24.10
2018-06-20T15:34:20.206Z,24.10
2018-06-20T15:36:54.071Z,24.00
2018-06-20T15:39:22.745Z,23.90
2018-06-20T15:41:51.225Z,24.10
2018-06-20T15:44:19.755Z,24.10
2018-06-20T15:46:48.270Z,24.10
2018-06-20T15:49:17.090Z,24.40
2018-06-20T15:51:45.638Z,24.60
2018-06-20T15:54:14.446Z,24.40
2018-06-20T15:56:42.936Z,24.40
2018-06-20T15:59:11.431Z,24.30
2018-06-20T16:01:41.569Z,24.20
2018-06-20T16:04:10.084Z,24.10
2018-06-20T16:09:13.212Z,24.10
2018-06-20T16:11:41.770Z,24.10
2018-06-20T16:14:11.050Z,24.00
2018-06-20T16:16:39.570Z,24.00
2018-06-20T16:19:13.259Z,24.00
2018-06-20T16:24:20.748Z,23.70
2018-06-20T16:26:54.532Z,23.70
2018-06-20T16:31:32.888Z,23.70
2018-06-20T16:34:01.430Z,23.70
2018-06-20T16:36:30.140Z,23.50
2018-06-20T16:38:58.674Z,23.50
2018-06-20T16:41:27.176Z,23.50
2018-06-20T16:43:56.347Z,23.60
2018-06-20T16:46:24.858Z,23.50
2018-06-20T16:48:54.264Z,23.30
2018-06-20T16:51:22.754Z,23.30
2018-06-20T16:53:51.315Z,23.30
2018-06-20T16:56:20.011Z,23.20
2018-06-20T16:58:48.913Z,23.30
2018-06-20T17:01:22.730Z,23.30
2018-06-20T17:03:51.233Z,23.20
2018-06-20T17:06:20.223Z,23.20
2018-06-20T17:08:48.701Z,23.10
2018-06-20T17:11:17.238Z,23.30
2018-06-20T17:13:51.020Z,23.10
2018-06-20T17:16:25.757Z,23.00
2018-06-20T17:18:59.516Z,22.90
2018-06-20T17:21:33.205Z,23.00
2018-06-20T17:26:35.217Z,22.80
2018-06-20T17:29:03.761Z,22.90
2018-06-20T17:31:32.269Z,23.00
2018-06-20T17:34:00.824Z,23.00
2018-06-20T17:36:29.339Z,22.90
2018-06-20T17:38:58.048Z,22.80
2018-06-20T17:41:26.706Z,22.70
2018-06-20T17:43:55.312Z,22.60
2018-06-20T17:46:23.893Z,22.50
2018-06-20T17:48:52.362Z,22.50
2018-06-20T17:51:20.912Z,22.80
2018-06-20T17:53:49.428Z,22.70
2018-06-20T17:56:18.463Z,22.60
2018-06-20T17:58:46.970Z,22.60
2018-06-20T18:01:16.873Z,22.50
2018-06-20T18:03:45.373Z,22.50
2018-06-20T18:06:19.400Z,22.40
2018-06-20T18:08:53.203Z,22.40
2018-06-20T18:11:27.054Z,22.40
2018-06-20T18:14:00.904Z,22.30
2018-06-20T18:16:34.607Z,22.50
2018-06-20T18:19:03.134Z,22.40
2018-06-20T18:21:31.841Z,22.30
2018-06-20T18:24:00.394Z,22.30
2018-06-20T18:26:28.944Z,22.40
2018-06-20T18:28:57.467Z,22.30
2018-06-20T18:31:26.007Z,22.10
2018-06-20T18:33:55.071Z,22.10
2018-06-20T18:36:23.616Z,22.20
2018-06-20T18:38:52.179Z,22.10
2018-06-20T18:41:20.692Z,22.10
2018-06-20T18:43:49.712Z,21.80
2018-06-20T18:46:19.033Z,21.80
2018-06-20T18:48:47.660Z,21.80
2018-06-20T18:51:16.282Z,21.70
2018-06-20T18:53:44.859Z,21.90
2018-06-20T18:56:13.420Z,21.90
2018-06-20T19:03:55.032Z,21.60
2018-06-20T19:06:28.810Z,21.50
2018-06-20T19:09:00.981Z,21.50
2018-06-20T19:11:29.545Z,21.50
2018-06-20T19:13:58.141Z,21.40
2018-06-20T19:16:26.692Z,21.40
2018-06-20T19:18:55.457Z,21.30
2018-06-20T19:21:24.059Z,21.30
2018-06-20T19:23:52.911Z,21.10
2018-06-20T19:26:21.444Z,21.00
2018-06-20T19:28:50.031Z,20.90
2018-06-20T19:31:18.684Z,20.90
2018-06-20T19:33:47.725Z,20.90
2018-06-20T19:36:16.215Z,20.90
2018-06-20T19:38:44.751Z,20.90
2018-06-20T19:41:13.484Z,21.00
2018-06-20T19:43:47.305Z,21.00
2018-06-20T19:46:16.365Z,20.70
2018-06-20T19:48:45.046Z,20.80
2018-06-20T19:51:13.610Z,20.60
2018-06-20T19:53:42.392Z,20.60
2018-06-20T19:56:11.110Z,20.80
2018-06-20T19:58:39.761Z,20.70
2018-06-20T20:01:08.313Z,20.60
2018-06-20T20:03:37.131Z,20.50
2018-06-20T20:06:05.865Z,20.30
2018-06-20T20:08:34.844Z,20.40
2018-06-20T20:11:03.479Z,20.30
2018-06-20T20:13:32.183Z,20.20
2018-06-20T20:16:00.736Z,20.20
2018-06-20T20:18:29.251Z,20.10
2018-06-20T20:20:57.915Z,20.30
2018-06-20T20:23:26.443Z,20.20
2018-06-20T20:25:54.989Z,20.10
2018-06-20T20:28:23.681Z,20.20
2018-06-20T20:30:52.425Z,20.20
2018-06-20T20:33:20.933Z,20.20
2018-06-20T20:35:49.468Z,19.90
2018-06-20T20:38:17.996Z,19.90
2018-06-20T20:40:46.510Z,19.80
2018-06-20T20:43:15.182Z,19.70
2018-06-20T20:45:44.548Z,19.50
2018-06-20T20:48:13.074Z,19.40
2018-06-20T20:50:42.126Z,19.40
2018-06-20T20:53:10.682Z,19.50
2018-06-20T20:55:39.494Z,19.50
2018-06-20T20:58:08.106Z,19.30
2018-06-20T21:00:36.614Z,19.20
2018-06-20T21:03:05.423Z,19.10
2018-06-20T21:05:33.962Z,19.00
2018-06-20T21:08:02.604Z,18.90
2018-06-20T21:10:31.342Z,19.00
2018-06-20T21:13:00.766Z,19.00
2018-06-20T21:15:29.370Z,19.00
2018-06-20T21:17:57.878Z,18.90
2018-06-20T21:20:26.410Z,18.80
2018-06-20T21:22:54.957Z,18.80
2018-06-20T21:25:23.678Z,18.80
2018-06-20T21:30:20.619Z,18.70
2018-06-20T21:32:49.244Z,18.90
2018-06-20T21:35:17.871Z,18.80
2018-06-20T21:37:46.531Z,18.80
2018-06-20T21:40:15.159Z,18.80
2018-06-20T21:45:11.953Z,18.70
2018-06-20T21:47:40.507Z,18.60
2018-06-20T21:50:09.037Z,18.70
2018-06-20T21:52:37.599Z,18.70
2018-06-20T21:55:06.184Z,18.70
2018-06-20T21:57:34.930Z,18.60
2018-06-20T22:00:03.519Z,18.50
2018-06-20T22:02:32.058Z,18.40
2018-06-20T22:05:00.576Z,18.50
2018-06-20T22:07:29.128Z,18.50
2018-06-20T22:09:57.765Z,18.50
2018-06-20T22:12:26.397Z,18.50
2018-06-20T22:14:54.972Z,18.40
2018-06-20T22:17:23.447Z,18.30
2018-06-20T22:19:51.976Z,18.30
2018-06-20T22:22:20.724Z,18.40
2018-06-20T22:24:49.315Z,18.40
2018-06-20T22:27:18.623Z,18.30
2018-06-20T22:29:47.819Z,18.30
2018-06-20T22:34:44.502Z,18.00
2018-06-20T22:37:13.024Z,17.90
2018-06-20T22:39:41.561Z,17.90
2018-06-20T22:42:10.257Z,17.90
2018-06-20T22:44:38.825Z,17.90
2018-06-20T22:47:07.496Z,17.90
2018-06-20T22:49:36.079Z,17.70
2018-06-20T22:52:04.637Z,17.60
2018-06-20T22:54:33.226Z,17.50
2018-06-20T22:57:02.107Z,17.60
2018-06-20T22:59:30.672Z,17.60
2018-06-20T23:02:00.347Z,17.60
2018-06-20T23:04:28.912Z,17.70
2018-06-20T23:06:57.508Z,17.50
2018-06-20T23:09:27.116Z,17.60
2018-06-20T23:11:55.816Z,17.60
2018-06-20T23:14:24.482Z,17.50
2018-06-20T23:16:53.089Z,17.30
2018-06-20T23:19:22.162Z,17.40
2018-06-20T23:21:50.867Z,17.30
2018-06-20T23:24:19.477Z,17.40
2018-06-20T23:26:48.296Z,17.40
2018-06-20T23:29:16.893Z,17.30
2018-06-20T23:31:45.438Z,17.20
2018-06-20T23:34:14.632Z,17.20
2018-06-20T23:36:43.219Z,17.20
2018-06-20T23:39:11.829Z,17.20
2018-06-20T23:41:40.596Z,17.20
2018-06-20T23:44:09.379Z,17.20
2018-06-20T23:46:38.000Z,17.10
2018-06-20T23:49:06.996Z,17.10
2018-06-20T23:51:36.501Z,17.10
2018-06-20T23:54:05.492Z,16.90
2018-06-20T23:56:35.111Z,16.80
2018-06-20T23:59:03.886Z,17.00
